sensor_id;sensor_type;location;lat;lon;timestamp;pressure;altitude;pressure_sealevel;temperature;humidity
36092;BME280;22147;52.388;13.390;2024-01-11T00:00:54;102403.69;;;-11.29;100.00
36092;BME280;22147;52.388;13.390;2024-01-11T00:03:23;102402.28;;;-11.33;100.00
36092;BME280;22147;52.388;13.390;2024-01-11T00:05:52;102397.91;;;-11.34;100.00
36092;BME280;22147;52.388;13.390;2024-01-11T00:08:22;102381.56;;;-11.40;100.00
36092;BME280;22147;52.388;13.390;2024-01-11T00:10:52;102378.16;;;-11.52;100.00
36092;BME280;22147;52.388;13.390;2024-01-11T00:13:21;102370.13;;;-11.62;100.00
36092;BME280;22147;52.388;13.390;2024-01-11T00:15:51;102365.75;;;-11.53;100.00
36092;BME280;22147;52.388;13.390;2024-01-11T00:18:20;102380.97;;;-11.54;100.00
36092;BME280;22147;52.388;13.390;2024-01-11T00:20:50;102381.41;;;-11.49;100.00
36092;BME280;22147;52.388;13.390;2024-01-11T00:23:21;102379.56;;;-11.58;100.00
36092;BME280;22147;52.388;13.390;2024-01-11T00:25:51;102381.53;;;-11.60;100.00
36092;BME280;22147;52.388;13.390;2024-01-11T00:28:20;102383.53;;;-11.62;100.00
36092;BME280;22147;52.388;13.390;2024-01-11T00:30:49;102388.50;;;-11.57;100.00
36092;BME280;22147;52.388;13.390;2024-01-11T00:33:18;102384.81;;;-11.56;100.00
36092;BME280;22147;52.388;13.390;2024-01-11T00:35:47;102375.78;;;-11.55;100.00
36092;BME280;22147;52.388;13.390;2024-01-11T00:38:17;102379.44;;;-11.56;100.00
36092;BME280;22147;52.388;13.390;2024-01-11T00:40:46;102371.97;;;-11.53;100.00
36092;BME280;22147;52.388;13.390;2024-01-11T00:43:16;102356.00;;;-11.54;100.00
36092;BME280;22147;52.388;13.390;2024-01-11T00:45:45;102362.94;;;-11.61;100.00
36092;BME280;22147;52.388;13.390;2024-01-11T00:48:15;102351.06;;;-11.59;100.00
36092;BME280;22147;52.388;13.390;2024-01-11T00:50:44;102361.50;;;-11.56;100.00
36092;BME280;22147;52.388;13.390;2024-01-11T00:53:14;102361.38;;;-11.54;100.00
36092;BME280;22147;52.388;13.390;2024-01-11T00:55:43;102351.78;;;-11.57;100.00
36092;BME280;22147;52.388;13.390;2024-01-11T00:58:13;102346.41;;;-11.67;100.00
36092;BME280;22147;52.388;13.390;2024-01-11T01:00:42;102336.97;;;-11.71;100.00
36092;BME280;22147;52.388;13.390;2024-01-11T01:03:11;102326.41;;;-11.72;100.00
36092;BME280;22147;52.388;13.390;2024-01-11T01:05:40;102326.81;;;-11.77;100.00
36092;BME280;22147;52.388;13.390;2024-01-11T01:08:10;102326.81;;;-11.77;100.00
36092;BME280;22147;52.388;13.390;2024-01-11T01:10:39;102327.38;;;-11.73;100.00
36092;BME280;22147;52.388;13.390;2024-01-11T01:13:08;102322.84;;;-11.73;100.00
36092;BME280;22147;52.388;13.390;2024-01-11T01:15:37;102324.81;;;-11.75;100.00
36092;BME280;22147;52.388;13.390;2024-01-11T01:18:07;102324.56;;;-11.72;100.00
36092;BME280;22147;52.388;13.390;2024-01-11T01:20:36;102326.81;;;-11.67;100.00
36092;BME280;22147;52.388;13.390;2024-01-11T01:23:06;102336.84;;;-11.59;100.00
36092;BME280;22147;52.388;13.390;2024-01-11T01:25:35;102323.69;;;-11.53;100.00
36092;BME280;22147;52.388;13.390;2024-01-11T01:28:03;102306.47;;;-11.60;100.00
36092;BME280;22147;52.388;13.390;2024-01-11T01:30:32;102305.63;;;-11.60;100.00
36092;BME280;22147;52.388;13.390;2024-01-11T01:33:00;102320.44;;;-11.56;100.00
36092;BME280;22147;52.388;13.390;2024-01-11T01:35:28;102321.72;;;-11.51;100.00
36092;BME280;22147;52.388;13.390;2024-01-11T01:37:57;102321.28;;;-11.46;100.00
36092;BME280;22147;52.388;13.390;2024-01-11T01:40:25;102328.19;;;-11.43;100.00
36092;BME280;22147;52.388;13.390;2024-01-11T01:42:59;102321.84;;;-11.42;100.00
36092;BME280;22147;52.388;13.390;2024-01-11T01:45:28;102309.28;;;-11.42;100.00
36092;BME280;22147;52.388;13.390;2024-01-11T01:47:57;102315.78;;;-11.44;100.00
36092;BME280;22147;52.388;13.390;2024-01-11T01:50:26;102326.06;;;-11.40;100.00
36092;BME280;22147;52.388;13.390;2024-01-11T01:52:55;102326.31;;;-11.33;100.00
36092;BME280;22147;52.388;13.390;2024-01-11T01:55:26;102315.28;;;-11.30;100.00
36092;BME280;22147;52.388;13.390;2024-01-11T01:58:00;102306.84;;;-11.25;100.00
36092;BME280;22147;52.388;13.390;2024-01-11T02:00:31;102305.38;;;-11.20;100.00
36092;BME280;22147;52.388;13.390;2024-01-11T02:03:01;102305.81;;;-11.15;100.00
36092;BME280;22147;52.388;13.390;2024-01-11T02:05:32;102300.97;;;-11.11;100.00
36092;BME280;22147;52.388;13.390;2024-01-11T02:08:06;102299.00;;;-11.09;100.00
36092;BME280;22147;52.388;13.390;2024-01-11T02:10:43;102314.13;;;-11.08;100.00
36092;BME280;22147;52.388;13.390;2024-01-11T02:13:12;102313.97;;;-11.07;100.00
36092;BME280;22147;52.388;13.390;2024-01-11T02:15:41;102331.06;;;-11.08;100.00
36092;BME280;22147;52.388;13.390;2024-01-11T02:18:10;102327.53;;;-11.08;100.00
36092;BME280;22147;52.388;13.390;2024-01-11T02:20:41;102334.19;;;-11.12;100.00
36092;BME280;22147;52.388;13.390;2024-01-11T02:23:21;102335.31;;;-11.15;100.00
36092;BME280;22147;52.388;13.390;2024-01-11T02:25:54;102353.94;;;-11.13;100.00
36092;BME280;22147;52.388;13.390;2024-01-11T02:28:24;102356.50;;;-11.12;100.00
36092;BME280;22147;52.388;13.390;2024-01-11T02:30:55;102342.94;;;-11.10;100.00
36092;BME280;22147;52.388;13.390;2024-01-11T02:33:25;102340.50;;;-11.03;100.00
36092;BME280;22147;52.388;13.390;2024-01-11T02:35:56;102341.34;;;-11.03;100.00
36092;BME280;22147;52.388;13.390;2024-01-11T02:38:26;102348.13;;;-10.99;100.00
36092;BME280;22147;52.388;13.390;2024-01-11T02:40:59;102354.88;;;-10.95;100.00
36092;BME280;22147;52.388;13.390;2024-01-11T02:43:29;102350.63;;;-10.88;100.00
36092;BME280;22147;52.388;13.390;2024-01-11T02:46:00;102349.03;;;-10.80;100.00
36092;BME280;22147;52.388;13.390;2024-01-11T02:48:30;102358.34;;;-10.75;100.00
36092;BME280;22147;52.388;13.390;2024-01-11T02:50:58;102359.59;;;-10.69;100.00
36092;BME280;22147;52.388;13.390;2024-01-11T02:53:27;102351.63;;;-10.61;100.00
36092;BME280;22147;52.388;13.390;2024-01-11T02:55:55;102332.56;;;-10.58;100.00
36092;BME280;22147;52.388;13.390;2024-01-11T02:58:23;102325.03;;;-10.54;100.00
36092;BME280;22147;52.388;13.390;2024-01-11T03:00:52;102327.56;;;-10.53;100.00
36092;BME280;22147;52.388;13.390;2024-01-11T03:03:20;102320.59;;;-10.46;100.00
36092;BME280;22147;52.388;13.390;2024-01-11T03:05:49;102309.69;;;-10.44;100.00
36092;BME280;22147;52.388;13.390;2024-01-11T03:08:17;102300.09;;;-10.47;100.00
36092;BME280;22147;52.388;13.390;2024-01-11T03:10:45;102295.47;;;-10.54;100.00
36092;BME280;22147;52.388;13.390;2024-01-11T03:13:14;102318.13;;;-10.57;100.00
36092;BME280;22147;52.388;13.390;2024-01-11T03:15:42;102317.13;;;-10.56;100.00
36092;BME280;22147;52.388;13.390;2024-01-11T03:18:11;102316.53;;;-10.50;100.00
36092;BME280;22147;52.388;13.390;2024-01-11T03:20:39;102328.97;;;-10.49;100.00
36092;BME280;22147;52.388;13.390;2024-01-11T03:23:08;102335.72;;;-10.45;100.00
36092;BME280;22147;52.388;13.390;2024-01-11T03:25:36;102332.56;;;-10.40;100.00
36092;BME280;22147;52.388;13.390;2024-01-11T03:28:05;102337.56;;;-10.45;100.00
36092;BME280;22147;52.388;13.390;2024-01-11T03:30:33;102336.41;;;-10.42;100.00
36092;BME280;22147;52.388;13.390;2024-01-11T03:33:01;102319.84;;;-10.38;100.00
36092;BME280;22147;52.388;13.390;2024-01-11T03:35:30;102325.34;;;-10.39;100.00
36092;BME280;22147;52.388;13.390;2024-01-11T03:37:58;102326.38;;;-10.40;100.00
36092;BME280;22147;52.388;13.390;2024-01-11T03:40:26;102316.59;;;-10.41;100.00
36092;BME280;22147;52.388;13.390;2024-01-11T03:42:55;102312.53;;;-10.46;100.00
36092;BME280;22147;52.388;13.390;2024-01-11T03:45:23;102319.59;;;-10.45;100.00
36092;BME280;22147;52.388;13.390;2024-01-11T03:47:52;102301.63;;;-10.44;100.00
36092;BME280;22147;52.388;13.390;2024-01-11T03:50:20;102303.09;;;-10.50;100.00
36092;BME280;22147;52.388;13.390;2024-01-11T03:52:49;102286.72;;;-10.56;100.00
36092;BME280;22147;52.388;13.390;2024-01-11T03:55:17;102281.06;;;-10.53;100.00
36092;BME280;22147;52.388;13.390;2024-01-11T03:57:45;102289.41;;;-10.56;100.00
36092;BME280;22147;52.388;13.390;2024-01-11T04:00:14;102270.22;;;-10.61;100.00
36092;BME280;22147;52.388;13.390;2024-01-11T04:02:42;102262.91;;;-10.69;100.00
36092;BME280;22147;52.388;13.390;2024-01-11T04:05:11;102268.13;;;-10.68;100.00
36092;BME280;22147;52.388;13.390;2024-01-11T04:07:39;102270.00;;;-10.68;100.00
36092;BME280;22147;52.388;13.390;2024-01-11T04:10:08;102288.47;;;-10.65;100.00
36092;BME280;22147;52.388;13.390;2024-01-11T04:12:39;102301.75;;;-10.63;100.00
36092;BME280;22147;52.388;13.390;2024-01-11T04:15:08;102294.78;;;-10.56;100.00
36092;BME280;22147;52.388;13.390;2024-01-11T04:17:36;102280.50;;;-10.57;100.00
36092;BME280;22147;52.388;13.390;2024-01-11T04:20:07;102284.22;;;-10.58;100.00
36092;BME280;22147;52.388;13.390;2024-01-11T04:22:40;102300.69;;;-10.53;100.00
36092;BME280;22147;52.388;13.390;2024-01-11T04:25:10;102295.03;;;-10.50;100.00
36092;BME280;22147;52.388;13.390;2024-01-11T04:27:41;102285.66;;;-10.46;100.00
36092;BME280;22147;52.388;13.390;2024-01-11T04:30:11;102274.47;;;-10.41;100.00
36092;BME280;22147;52.388;13.390;2024-01-11T04:32:42;102271.63;;;-10.39;100.00
36092;BME280;22147;52.388;13.390;2024-01-11T04:35:12;102281.06;;;-10.35;100.00
36092;BME280;22147;52.388;13.390;2024-01-11T04:37:42;102297.75;;;-10.32;100.00
36092;BME280;22147;52.388;13.390;2024-01-11T04:40:12;102301.13;;;-10.30;100.00
36092;BME280;22147;52.388;13.390;2024-01-11T04:42:43;102300.47;;;-10.24;100.00
36092;BME280;22147;52.388;13.390;2024-01-11T04:45:13;102294.41;;;-10.08;100.00
36092;BME280;22147;52.388;13.390;2024-01-11T04:47:43;102296.13;;;-10.07;100.00
36092;BME280;22147;52.388;13.390;2024-01-11T04:50:14;102303.56;;;-10.00;100.00
36092;BME280;22147;52.388;13.390;2024-01-11T04:52:44;102290.03;;;-9.91;100.00
36092;BME280;22147;52.388;13.390;2024-01-11T04:55:14;102297.56;;;-9.94;100.00
36092;BME280;22147;52.388;13.390;2024-01-11T04:57:44;102292.56;;;-9.89;100.00
36092;BME280;22147;52.388;13.390;2024-01-11T05:00:15;102279.97;;;-9.89;100.00
36092;BME280;22147;52.388;13.390;2024-01-11T05:02:45;102260.22;;;-9.79;100.00
36092;BME280;22147;52.388;13.390;2024-01-11T05:05:16;102277.66;;;-9.84;100.00
36092;BME280;22147;52.388;13.390;2024-01-11T05:07:46;102279.56;;;-9.76;100.00
36092;BME280;22147;52.388;13.390;2024-01-11T05:10:17;102261.81;;;-9.69;100.00
36092;BME280;22147;52.388;13.390;2024-01-11T05:12:47;102228.69;;;-9.69;100.00
36092;BME280;22147;52.388;13.390;2024-01-11T05:15:17;102237.22;;;-9.74;100.00
36092;BME280;22147;52.388;13.390;2024-01-11T05:17:47;102227.31;;;-9.73;100.00
36092;BME280;22147;52.388;13.390;2024-01-11T05:20:18;102214.72;;;-9.73;100.00
36092;BME280;22147;52.388;13.390;2024-01-11T05:22:48;102251.53;;;-9.73;100.00
36092;BME280;22147;52.388;13.390;2024-01-11T05:25:18;102258.59;;;-9.72;100.00
36092;BME280;22147;52.388;13.390;2024-01-11T05:27:48;102264.50;;;-9.69;100.00
36092;BME280;22147;52.388;13.390;2024-01-11T05:30:18;102255.81;;;-9.63;100.00
36092;BME280;22147;52.388;13.390;2024-01-11T05:32:49;102228.22;;;-9.65;100.00
36092;BME280;22147;52.388;13.390;2024-01-11T05:35:20;102247.03;;;-9.65;100.00
36092;BME280;22147;52.388;13.390;2024-01-11T05:37:51;102250.09;;;-9.59;100.00
36092;BME280;22147;52.388;13.390;2024-01-11T05:40:19;102251.31;;;-9.54;100.00
36092;BME280;22147;52.388;13.390;2024-01-11T05:42:48;102267.81;;;-9.49;100.00
36092;BME280;22147;52.388;13.390;2024-01-11T05:45:16;102255.75;;;-9.45;100.00
36092;BME280;22147;52.388;13.390;2024-01-11T05:47:51;102259.25;;;-9.44;100.00
36092;BME280;22147;52.388;13.390;2024-01-11T05:50:21;102248.34;;;-9.43;100.00
36092;BME280;22147;52.388;13.390;2024-01-11T05:52:54;102249.56;;;-9.37;100.00
36092;BME280;22147;52.388;13.390;2024-01-11T05:55:26;102250.25;;;-9.35;100.00
36092;BME280;22147;52.388;13.390;2024-01-11T05:57:56;102252.25;;;-9.37;100.00
36092;BME280;22147;52.388;13.390;2024-01-11T06:00:27;102243.03;;;-9.34;100.00
36092;BME280;22147;52.388;13.390;2024-01-11T06:02:57;102218.47;;;-9.31;100.00
36092;BME280;22147;52.388;13.390;2024-01-11T06:05:27;102228.25;;;-9.30;100.00
36092;BME280;22147;52.388;13.390;2024-01-11T06:07:57;102239.53;;;-9.27;100.00
36092;BME280;22147;52.388;13.390;2024-01-11T06:10:28;102238.38;;;-9.24;100.00
36092;BME280;22147;52.388;13.390;2024-01-11T06:12:56;102237.03;;;-9.20;100.00
36092;BME280;22147;52.388;13.390;2024-01-11T06:15:25;102250.03;;;-9.15;100.00
36092;BME280;22147;52.388;13.390;2024-01-11T06:17:53;102251.09;;;-9.00;100.00
36092;BME280;22147;52.388;13.390;2024-01-11T06:20:22;102240.84;;;-8.96;100.00
36092;BME280;22147;52.388;13.390;2024-01-11T06:22:50;102230.59;;;-8.93;100.00
36092;BME280;22147;52.388;13.390;2024-01-11T06:25:19;102232.13;;;-8.90;100.00
36092;BME280;22147;52.388;13.390;2024-01-11T06:27:47;102228.44;;;-8.81;100.00
36092;BME280;22147;52.388;13.390;2024-01-11T06:30:15;102229.66;;;-8.75;100.00
36092;BME280;22147;52.388;13.390;2024-01-11T06:32:44;102229.16;;;-8.71;100.00
36092;BME280;22147;52.388;13.390;2024-01-11T06:35:12;102225.66;;;-8.63;100.00
36092;BME280;22147;52.388;13.390;2024-01-11T06:37:41;102234.22;;;-8.60;100.00
36092;BME280;22147;52.388;13.390;2024-01-11T06:40:11;102225.47;;;-8.62;100.00
36092;BME280;22147;52.388;13.390;2024-01-11T06:42:40;102239.16;;;-8.55;100.00
36092;BME280;22147;52.388;13.390;2024-01-11T06:45:09;102229.34;;;-8.56;100.00
36092;BME280;22147;52.388;13.390;2024-01-11T06:47:37;102228.03;;;-8.52;100.00
36092;BME280;22147;52.388;13.390;2024-01-11T06:50:07;102222.28;;;-8.49;100.00
36092;BME280;22147;52.388;13.390;2024-01-11T06:52:38;102239.81;;;-8.45;100.00
36092;BME280;22147;52.388;13.390;2024-01-11T06:55:09;102231.41;;;-8.33;100.00
36092;BME280;22147;52.388;13.390;2024-01-11T06:57:40;102219.44;;;-8.31;100.00
36092;BME280;22147;52.388;13.390;2024-01-11T07:00:14;102219.09;;;-8.28;100.00
36092;BME280;22147;52.388;13.390;2024-01-11T07:02:41;102211.50;;;-8.24;100.00
36092;BME280;22147;52.388;13.390;2024-01-11T07:05:10;102208.50;;;-8.29;100.00
36092;BME280;22147;52.388;13.390;2024-01-11T07:07:38;102208.81;;;-8.32;100.00
36092;BME280;22147;52.388;13.390;2024-01-11T07:10:07;102218.75;;;-8.25;100.00
36092;BME280;22147;52.388;13.390;2024-01-11T07:12:39;102211.00;;;-8.20;100.00
36092;BME280;22147;52.388;13.390;2024-01-11T07:15:11;102207.13;;;-8.17;100.00
36092;BME280;22147;52.388;13.390;2024-01-11T07:17:42;102201.41;;;-8.14;100.00
36092;BME280;22147;52.388;13.390;2024-01-11T07:20:13;102206.13;;;-8.08;100.00
36092;BME280;22147;52.388;13.390;2024-01-11T07:22:45;102209.16;;;-8.03;100.00
36092;BME280;22147;52.388;13.390;2024-01-11T07:25:15;102210.34;;;-7.97;100.00
36092;BME280;22147;52.388;13.390;2024-01-11T07:27:46;102209.31;;;-7.96;100.00
36092;BME280;22147;52.388;13.390;2024-01-11T07:30:18;102205.94;;;-7.90;100.00
36092;BME280;22147;52.388;13.390;2024-01-11T07:32:45;102209.00;;;-7.85;100.00
36092;BME280;22147;52.388;13.390;2024-01-11T07:35:14;102206.97;;;-7.83;100.00
36092;BME280;22147;52.388;13.390;2024-01-11T07:37:45;102194.16;;;-7.81;100.00
36092;BME280;22147;52.388;13.390;2024-01-11T07:40:13;102198.81;;;-7.66;100.00
36092;BME280;22147;52.388;13.390;2024-01-11T07:42:43;102208.09;;;-7.69;100.00
36092;BME280;22147;52.388;13.390;2024-01-11T07:45:13;102216.72;;;-7.65;100.00
36092;BME280;22147;52.388;13.390;2024-01-11T07:47:43;102219.25;;;-7.55;100.00
36092;BME280;22147;52.388;13.390;2024-01-11T07:50:14;102210.28;;;-7.56;100.00
36092;BME280;22147;52.388;13.390;2024-01-11T07:52:46;102211.78;;;-7.45;100.00
36092;BME280;22147;52.388;13.390;2024-01-11T07:55:16;102224.44;;;-7.46;100.00
36092;BME280;22147;52.388;13.390;2024-01-11T07:57:46;102222.75;;;-7.47;100.00
36092;BME280;22147;52.388;13.390;2024-01-11T08:00:17;102218.50;;;-7.41;100.00
36092;BME280;22147;52.388;13.390;2024-01-11T08:02:47;102221.88;;;-7.39;100.00
36092;BME280;22147;52.388;13.390;2024-01-11T08:05:17;102196.88;;;-7.33;100.00
36092;BME280;22147;52.388;13.390;2024-01-11T08:07:48;102196.72;;;-7.31;100.00
36092;BME280;22147;52.388;13.390;2024-01-11T08:10:18;102195.34;;;-7.19;100.00
36092;BME280;22147;52.388;13.390;2024-01-11T08:12:48;102202.06;;;-7.15;100.00
36092;BME280;22147;52.388;13.390;2024-01-11T08:15:19;102204.78;;;-7.15;100.00
36092;BME280;22147;52.388;13.390;2024-01-11T08:17:49;102210.19;;;-7.15;100.00
36092;BME280;22147;52.388;13.390;2024-01-11T08:20:19;102203.22;;;-7.09;100.00
36092;BME280;22147;52.388;13.390;2024-01-11T08:22:49;102195.44;;;-7.04;100.00
36092;BME280;22147;52.388;13.390;2024-01-11T08:25:20;102189.00;;;-7.03;100.00
36092;BME280;22147;52.388;13.390;2024-01-11T08:27:50;102196.94;;;-7.02;100.00
36092;BME280;22147;52.388;13.390;2024-01-11T08:30:20;102211.13;;;-7.00;100.00
36092;BME280;22147;52.388;13.390;2024-01-11T08:32:51;102204.34;;;-6.96;100.00
36092;BME280;22147;52.388;13.390;2024-01-11T08:35:22;102203.31;;;-6.94;100.00
36092;BME280;22147;52.388;13.390;2024-01-11T08:37:52;102203.44;;;-6.88;100.00
36092;BME280;22147;52.388;13.390;2024-01-11T08:40:22;102212.88;;;-6.84;100.00
36092;BME280;22147;52.388;13.390;2024-01-11T08:42:53;102197.84;;;-6.78;100.00
36092;BME280;22147;52.388;13.390;2024-01-11T08:45:23;102197.31;;;-6.73;100.00
36092;BME280;22147;52.388;13.390;2024-01-11T08:47:53;102194.59;;;-6.73;100.00
36092;BME280;22147;52.388;13.390;2024-01-11T08:50:24;102190.22;;;-6.74;100.00
36092;BME280;22147;52.388;13.390;2024-01-11T08:52:56;102184.78;;;-6.66;100.00
36092;BME280;22147;52.388;13.390;2024-01-11T08:55:26;102188.97;;;-6.64;100.00
36092;BME280;22147;52.388;13.390;2024-01-11T08:57:57;102194.56;;;-6.65;100.00
36092;BME280;22147;52.388;13.390;2024-01-11T09:00:27;102196.75;;;-6.69;100.00
36092;BME280;22147;52.388;13.390;2024-01-11T09:02:57;102188.31;;;-6.66;100.00
36092;BME280;22147;52.388;13.390;2024-01-11T09:05:28;102196.84;;;-6.77;100.00
36092;BME280;22147;52.388;13.390;2024-01-11T09:07:58;102195.97;;;-6.78;100.00
36092;BME280;22147;52.388;13.390;2024-01-11T09:10:26;102194.31;;;-6.79;100.00
36092;BME280;22147;52.388;13.390;2024-01-11T09:12:55;102180.75;;;-6.70;100.00
36092;BME280;22147;52.388;13.390;2024-01-11T09:15:23;102176.34;;;-6.71;100.00
36092;BME280;22147;52.388;13.390;2024-01-11T09:17:52;102174.69;;;-6.72;100.00
36092;BME280;22147;52.388;13.390;2024-01-11T09:20:20;102168.91;;;-6.69;100.00
36092;BME280;22147;52.388;13.390;2024-01-11T09:22:49;102166.63;;;-6.58;100.00
36092;BME280;22147;52.388;13.390;2024-01-11T09:25:17;102159.66;;;-6.52;100.00
36092;BME280;22147;52.388;13.390;2024-01-11T09:27:45;102163.22;;;-6.51;100.00
36092;BME280;22147;52.388;13.390;2024-01-11T09:30:14;102158.94;;;-6.46;100.00
36092;BME280;22147;52.388;13.390;2024-01-11T09:32:42;102155.88;;;-6.43;100.00
36092;BME280;22147;52.388;13.390;2024-01-11T09:35:11;102153.00;;;-6.41;100.00
36092;BME280;22147;52.388;13.390;2024-01-11T09:37:42;102172.47;;;-6.46;100.00
36092;BME280;22147;52.388;13.390;2024-01-11T09:40:17;102167.91;;;-6.45;100.00
36092;BME280;22147;52.388;13.390;2024-01-11T09:42:48;102163.69;;;-6.48;100.00
36092;BME280;22147;52.388;13.390;2024-01-11T09:45:19;102164.59;;;-6.56;100.00
36092;BME280;22147;52.388;13.390;2024-01-11T09:47:49;102167.44;;;-6.49;100.00
36092;BME280;22147;52.388;13.390;2024-01-11T09:50:20;102164.19;;;-6.44;100.00
36092;BME280;22147;52.388;13.390;2024-01-11T09:52:50;102168.19;;;-6.40;100.00
36092;BME280;22147;52.388;13.390;2024-01-11T09:55:20;102172.47;;;-6.46;100.00
36092;BME280;22147;52.388;13.390;2024-01-11T09:57:52;102164.19;;;-6.44;100.00
36092;BME280;22147;52.388;13.390;2024-01-11T10:00:25;102170.66;;;-6.53;100.00
36092;BME280;22147;52.388;13.390;2024-01-11T10:02:55;102178.53;;;-6.44;100.00
36092;BME280;22147;52.388;13.390;2024-01-11T10:05:27;102187.56;;;-6.51;100.00
36092;BME280;22147;52.388;13.390;2024-01-11T10:07:59;102198.38;;;-6.51;100.00
36092;BME280;22147;52.388;13.390;2024-01-11T10:10:30;102194.28;;;-6.47;100.00
36092;BME280;22147;52.388;13.390;2024-01-11T10:13:01;102201.19;;;-6.45;100.00
36092;BME280;22147;52.388;13.390;2024-01-11T10:15:32;102206.09;;;-6.48;100.00
36092;BME280;22147;52.388;13.390;2024-01-11T10:18:00;102187.31;;;-6.42;100.00
36092;BME280;22147;52.388;13.390;2024-01-11T10:20:29;102196.19;;;-6.33;100.00
36092;BME280;22147;52.388;13.390;2024-01-11T10:23:02;102189.47;;;-6.37;100.00
36092;BME280;22147;52.388;13.390;2024-01-11T10:25:33;102180.69;;;-6.39;100.00
36092;BME280;22147;52.388;13.390;2024-01-11T10:28:03;102169.88;;;-6.39;100.00
36092;BME280;22147;52.388;13.390;2024-01-11T10:30:36;102158.34;;;-6.33;100.00
36092;BME280;22147;52.388;13.390;2024-01-11T10:33:11;102154.78;;;-6.33;100.00
36092;BME280;22147;52.388;13.390;2024-01-11T10:35:42;102153.91;;;-6.26;100.00
36092;BME280;22147;52.388;13.390;2024-01-11T10:38:13;102145.72;;;-6.18;100.00
36092;BME280;22147;52.388;13.390;2024-01-11T10:40:43;102139.34;;;-6.25;100.00
36092;BME280;22147;52.388;13.390;2024-01-11T10:43:21;102146.69;;;-6.33;100.00
36092;BME280;22147;52.388;13.390;2024-01-11T10:45:52;102142.78;;;-6.31;100.00
36092;BME280;22147;52.388;13.390;2024-01-11T10:48:31;102140.13;;;-6.39;100.00
36092;BME280;22147;52.388;13.390;2024-01-11T10:51:08;102127.94;;;-6.35;100.00
36092;BME280;22147;52.388;13.390;2024-01-11T10:53:46;102128.59;;;-6.33;100.00
36092;BME280;22147;52.388;13.390;2024-01-11T10:56:19;102140.00;;;-6.23;100.00
36092;BME280;22147;52.388;13.390;2024-01-11T10:58:51;102139.72;;;-6.28;100.00
36092;BME280;22147;52.388;13.390;2024-01-11T11:01:26;102153.91;;;-6.26;100.00
36092;BME280;22147;52.388;13.390;2024-01-11T11:03:59;102148.88;;;-6.14;100.00
36092;BME280;22147;52.388;13.390;2024-01-11T11:06:34;102135.00;;;-6.11;100.00
36092;BME280;22147;52.388;13.390;2024-01-11T11:09:07;102141.91;;;-6.08;100.00
36092;BME280;22147;52.388;13.390;2024-01-11T11:11:39;102147.53;;;-5.95;100.00
36092;BME280;22147;52.388;13.390;2024-01-11T11:14:10;102148.75;;;-5.98;100.00
36092;BME280;22147;52.388;13.390;2024-01-11T11:16:45;102143.31;;;-5.98;100.00
36092;BME280;22147;52.388;13.390;2024-01-11T11:19:16;102146.03;;;-5.98;100.00
36092;BME280;22147;52.388;13.390;2024-01-11T11:21:48;102133.78;;;-5.94;100.00
36092;BME280;22147;52.388;13.390;2024-01-11T11:24:20;102133.34;;;-5.97;100.00
36092;BME280;22147;52.388;13.390;2024-01-11T11:26:51;102146.69;;;-5.96;100.00
36092;BME280;22147;52.388;13.390;2024-01-11T11:29:21;102142.09;;;-5.95;100.00
36092;BME280;22147;52.388;13.390;2024-01-11T11:31:51;102145.53;;;-5.86;100.00
36092;BME280;22147;52.388;13.390;2024-01-11T11:34:44;102151.16;;;-5.88;100.00
36092;BME280;22147;52.388;13.390;2024-01-11T11:37:23;102151.81;;;-5.86;100.00
36092;BME280;22147;52.388;13.390;2024-01-11T11:39:54;102145.38;;;-5.85;100.00
36092;BME280;22147;52.388;13.390;2024-01-11T11:42:22;102154.53;;;-5.86;100.00
36092;BME280;22147;52.388;13.390;2024-01-11T11:44:54;102160.38;;;-5.82;100.00
36092;BME280;22147;52.388;13.390;2024-01-11T11:47:23;102168.16;;;-5.79;100.00
36092;BME280;22147;52.388;13.390;2024-01-11T11:50:03;102170.13;;;-5.73;100.00
36092;BME280;22147;52.388;13.390;2024-01-11T11:52:40;102173.00;;;-5.75;100.00
36092;BME280;22147;52.388;13.390;2024-01-11T11:55:14;102170.31;;;-5.75;100.00
36092;BME280;22147;52.388;13.390;2024-01-11T11:57:45;102159.47;;;-5.75;100.00
36092;BME280;22147;52.388;13.390;2024-01-11T12:00:16;102156.03;;;-5.68;100.00
36092;BME280;22147;52.388;13.390;2024-01-11T12:02:47;102159.22;;;-5.65;100.00
36092;BME280;22147;52.388;13.390;2024-01-11T12:05:17;102159.66;;;-5.61;100.00
36092;BME280;22147;52.388;13.390;2024-01-11T12:07:51;102167.59;;;-5.60;100.00
36092;BME280;22147;52.388;13.390;2024-01-11T12:10:20;102147.75;;;-5.52;100.00
36092;BME280;22147;52.388;13.390;2024-01-11T12:12:50;102142.97;;;-5.50;100.00
36092;BME280;22147;52.388;13.390;2024-01-11T12:15:20;102137.47;;;-5.42;100.00
36092;BME280;22147;52.388;13.390;2024-01-11T12:17:47;102134.47;;;-5.47;100.00
36092;BME280;22147;52.388;13.390;2024-01-11T12:20:17;102134.56;;;-5.40;100.00
36092;BME280;22147;52.388;13.390;2024-01-11T12:22:49;102138.00;;;-5.46;100.00
36092;BME280;22147;52.388;13.390;2024-01-11T12:25:18;102135.13;;;-5.45;100.00
36092;BME280;22147;52.388;13.390;2024-01-11T12:27:47;102148.56;;;-5.37;100.00
36092;BME280;22147;52.388;13.390;2024-01-11T12:30:17;102145.09;;;-5.30;100.00
36092;BME280;22147;52.388;13.390;2024-01-11T12:32:47;102149.41;;;-5.36;100.00
36092;BME280;22147;52.388;13.390;2024-01-11T12:35:18;102136.03;;;-5.38;100.00
36092;BME280;22147;52.388;13.390;2024-01-11T12:38:01;102135.19;;;-5.38;100.00
36092;BME280;22147;52.388;13.390;2024-01-11T12:40:36;102125.84;;;-5.36;100.00